createdAt,value
2022-12-11T00:00:01.268Z,-2.10
2022-12-11T00:10:27.373Z,-2.00
2022-12-11T00:12:54.588Z,-2.30
2022-12-11T00:15:22.808Z,-2.30
2022-12-11T00:17:50.153Z,-2.30
2022-12-11T00:20:18.073Z,-2.20
2022-12-11T00:22:45.761Z,-2.10
2022-12-11T00:25:13.576Z,-1.90
2022-12-11T00:27:43.086Z,-2.00
2022-12-11T00:35:16.020Z,-1.90
2022-12-11T00:37:43.686Z,-1.50
2022-12-11T00:40:11.882Z,-1.50
2022-12-11T00:42:39.243Z,-1.50
2022-12-11T00:45:07.752Z,-1.20
2022-12-11T00:47:36.664Z,-1.40
2022-12-11T00:50:04.654Z,-1.80
2022-12-11T00:52:33.003Z,-1.80
2022-12-11T01:00:06.866Z,-2.10
2022-12-11T01:02:35.143Z,-1.80
2022-12-11T01:05:02.825Z,-1.60
2022-12-11T01:07:29.883Z,-1.60
2022-12-11T01:10:14.819Z,-1.80
2022-12-11T01:12:42.082Z,-1.90
2022-12-11T01:15:12.029Z,-1.70
2022-12-11T01:20:34.314Z,-1.40
2022-12-11T01:23:01.764Z,-1.20
2022-12-11T01:25:29.626Z,-1.20
2022-12-11T01:27:56.943Z,-1.40
2022-12-11T01:30:26.088Z,-1.20
2022-12-11T01:32:53.302Z,-1.40
2022-12-11T01:35:24.093Z,-1.30
2022-12-11T01:37:52.653Z,-1.20
2022-12-11T01:45:30.448Z,-0.90
2022-12-11T01:48:02.448Z,-1.10
2022-12-11T01:50:32.112Z,-1.30
2022-12-11T01:52:59.815Z,-1.50
2022-12-11T01:55:27.288Z,-1.20
2022-12-11T01:57:55.365Z,-1.40
2022-12-11T02:00:23.286Z,-1.20
2022-12-11T02:06:37.545Z,-1.00
2022-12-11T02:09:08.310Z,-0.90
2022-12-11T02:11:53.305Z,-1.00
2022-12-11T02:14:28.919Z,-1.10
2022-12-11T02:17:00.782Z,-1.10
2022-12-11T02:19:54.086Z,-1.00
2022-12-11T02:30:17.995Z,-0.90
2022-12-11T02:32:52.476Z,-0.90
2022-12-11T02:35:23.692Z,-0.60
2022-12-11T02:37:57.046Z,-0.70
2022-12-11T02:40:28.559Z,-0.90
2022-12-11T02:42:58.135Z,-0.60
2022-12-11T02:45:29.187Z,-0.40
2022-12-11T02:53:04.115Z,-0.20
2022-12-11T02:55:35.972Z,-0.10
2022-12-11T02:58:07.405Z,-0.10
2022-12-11T03:00:35.956Z,0.00
2022-12-11T03:03:04.125Z,-0.10
2022-12-11T03:05:31.777Z,-0.20
2022-12-11T03:07:59.604Z,-0.50
2022-12-11T03:13:07.712Z,-0.50
2022-12-11T03:15:46.961Z,-0.20
2022-12-11T03:18:20.054Z,-0.30
2022-12-11T03:20:57.518Z,-0.30
2022-12-11T03:23:33.219Z,-0.40
2022-12-11T03:26:06.247Z,-0.30
2022-12-11T03:28:43.134Z,-0.10
2022-12-11T03:39:05.999Z,-0.50
2022-12-11T03:41:35.554Z,-0.10
2022-12-11T03:44:04.274Z,0.20
2022-12-11T03:46:34.269Z,-0.20
2022-12-11T03:49:04.950Z,-0.10
2022-12-11T03:54:26.410Z,0.40
2022-12-11T03:56:59.669Z,0.50
2022-12-11T04:04:33.059Z,0.30
2022-12-11T04:07:00.463Z,0.00
2022-12-11T04:09:27.818Z,-0.20
2022-12-11T04:11:55.067Z,-0.10
2022-12-11T04:14:40.808Z,-0.10
2022-12-11T04:17:08.461Z,-0.20
2022-12-11T04:19:54.919Z,-0.20
2022-12-11T04:27:52.490Z,0.00
2022-12-11T04:30:22.793Z,-0.20
2022-12-11T04:32:50.260Z,-0.20
2022-12-11T04:35:17.918Z,0.00
2022-12-11T04:37:45.540Z,0.10
2022-12-11T04:40:15.739Z,0.30
2022-12-11T04:42:43.300Z,0.40
2022-12-11T04:45:13.770Z,0.30
2022-12-11T04:50:22.550Z,0.40
2022-12-11T04:52:50.450Z,0.40
2022-12-11T04:55:17.829Z,0.10
2022-12-11T04:57:45.352Z,0.00
2022-12-11T05:00:14.849Z,0.10
2022-12-11T05:02:43.111Z,0.00
2022-12-11T05:05:12.161Z,0.00
2022-12-11T05:07:41.801Z,0.30
2022-12-11T05:15:14.901Z,0.10
2022-12-11T05:17:42.260Z,0.10
2022-12-11T05:20:11.190Z,-0.10
2022-12-11T05:22:39.484Z,0.10
2022-12-11T05:25:08.030Z,0.30
2022-12-11T05:27:35.731Z,0.40
2022-12-11T05:30:03.491Z,0.30
2022-12-11T05:32:32.335Z,0.30
2022-12-11T05:37:55.478Z,0.50
2022-12-11T05:40:22.903Z,0.60
2022-12-11T05:42:50.549Z,0.50
2022-12-11T05:45:18.321Z,0.40
2022-12-11T05:47:45.550Z,0.30
2022-12-11T05:50:14.568Z,0.10
2022-12-11T05:52:42.098Z,0.00
2022-12-11T06:00:15.480Z,0.10
2022-12-11T06:02:42.870Z,-0.10
2022-12-11T06:05:11.593Z,0.10
2022-12-11T06:07:39.250Z,0.20
2022-12-11T06:10:07.621Z,0.20
2022-12-11T06:12:35.040Z,0.30
2022-12-11T06:15:02.710Z,0.30
2022-12-11T06:17:31.845Z,0.20
2022-12-11T06:27:55.771Z,0.50
2022-12-11T06:30:23.140Z,0.40
2022-12-11T06:33:05.555Z,0.20
2022-12-11T06:35:38.591Z,0.60
2022-12-11T06:38:09.141Z,1.00
2022-12-11T06:40:37.060Z,1.00
2022-12-11T06:43:05.392Z,0.80
2022-12-11T06:48:16.272Z,0.80
2022-12-11T06:50:45.439Z,0.20
2022-12-11T06:53:14.360Z,0.10
2022-12-11T06:55:42.449Z,0.10
2022-12-11T06:58:10.263Z,0.20
2022-12-11T07:00:38.462Z,0.30
2022-12-11T07:03:07.108Z,0.50
2022-12-11T07:08:29.824Z,0.20
2022-12-11T07:11:03.630Z,0.00
2022-12-11T07:13:33.858Z,0.10
2022-12-11T07:16:01.333Z,0.10
2022-12-11T07:18:29.405Z,-0.10
2022-12-11T07:20:59.660Z,-0.20
2022-12-11T07:23:27.761Z,-0.10
2022-12-11T07:25:57.830Z,0.00
2022-12-11T07:33:30.500Z,0.10
2022-12-11T07:36:02.150Z,0.30
2022-12-11T07:38:29.908Z,0.30
2022-12-11T07:41:00.247Z,0.50
2022-12-11T07:43:27.579Z,0.50
2022-12-11T07:45:55.001Z,0.50
2022-12-11T07:48:22.690Z,0.50
2022-12-11T07:50:51.047Z,0.50
2022-12-11T07:58:39.212Z,0.40
2022-12-11T08:01:11.415Z,0.00
2022-12-11T08:03:39.414Z,0.10
2022-12-11T08:06:08.152Z,0.40
2022-12-11T08:08:36.391Z,0.40
2022-12-11T08:11:04.130Z,0.20
2022-12-11T08:13:32.111Z,0.30
2022-12-11T08:19:09.610Z,0.50
2022-12-11T08:21:36.869Z,0.60
2022-12-11T08:24:05.110Z,0.40
2022-12-11T08:26:32.527Z,0.40
2022-12-11T08:29:01.923Z,0.40
2022-12-11T08:31:31.190Z,0.50
2022-12-11T08:34:01.828Z,0.40
2022-12-11T08:41:34.840Z,0.70
2022-12-11T08:44:02.713Z,0.60
2022-12-11T08:46:32.392Z,0.90
2022-12-11T08:49:00.161Z,1.00
2022-12-11T08:51:29.161Z,0.80
2022-12-11T08:53:58.444Z,0.80
2022-12-11T08:56:27.242Z,0.80
2022-12-11T09:01:45.929Z,1.00
2022-12-11T09:04:15.861Z,1.00
2022-12-11T09:06:45.850Z,0.80
2022-12-11T09:09:14.551Z,0.70
2022-12-11T09:11:42.590Z,0.70
2022-12-11T09:14:10.299Z,0.50
2022-12-11T09:16:40.476Z,0.70
2022-12-11T09:21:52.810Z,0.80
2022-12-11T09:24:21.070Z,0.90
2022-12-11T09:26:48.791Z,0.30
2022-12-11T09:29:16.060Z,0.20
2022-12-11T09:31:45.880Z,0.10
2022-12-11T09:34:14.080Z,0.40
2022-12-11T09:36:44.171Z,0.50
2022-12-11T09:39:14.502Z,0.30
2022-12-11T09:46:49.234Z,0.30
2022-12-11T09:49:26.324Z,0.00
2022-12-11T09:52:04.078Z,0.40
2022-12-11T09:54:33.220Z,0.00
2022-12-11T09:57:09.738Z,0.10
2022-12-11T09:59:43.710Z,0.40
2022-12-11T10:02:25.152Z,0.30
2022-12-11T10:11:11.229Z,0.30
2022-12-11T10:13:49.049Z,0.50
2022-12-11T10:16:33.034Z,0.50
2022-12-11T10:19:04.042Z,0.40
2022-12-11T10:21:42.433Z,0.60
2022-12-11T10:24:33.780Z,0.60
2022-12-11T10:33:23.321Z,0.50
2022-12-11T10:35:55.883Z,0.50
2022-12-11T10:38:27.729Z,0.50
2022-12-11T10:40:59.643Z,0.70
2022-12-11T10:43:35.603Z,0.60
2022-12-11T10:46:04.351Z,0.60
2022-12-11T10:48:34.148Z,0.60
2022-12-11T10:51:04.950Z,0.70
2022-12-11T10:56:51.541Z,0.70
2022-12-11T10:59:25.439Z,0.70
2022-12-11T11:01:53.672Z,0.60
2022-12-11T11:04:26.739Z,0.60
2022-12-11T11:07:03.878Z,0.70
2022-12-11T11:09:36.379Z,0.80
2022-12-11T11:20:16.442Z,0.90
2022-12-11T11:22:47.344Z,0.80
2022-12-11T11:25:21.020Z,0.90
2022-12-11T11:27:55.346Z,0.90
2022-12-11T11:30:27.499Z,0.90
2022-12-11T11:33:01.291Z,0.80
2022-12-11T11:35:33.718Z,0.80
2022-12-11T11:43:58.560Z,0.80
2022-12-11T11:46:30.445Z,1.00
2022-12-11T11:49:06.691Z,0.80
2022-12-11T11:51:42.651Z,0.90
2022-12-11T11:54:21.630Z,0.70
2022-12-11T11:56:54.081Z,0.70
2022-12-11T11:59:30.474Z,0.80
2022-12-11T12:04:43.131Z,0.80
2022-12-11T12:07:28.728Z,0.80
2022-12-11T12:10:07.576Z,0.90
2022-12-11T12:12:44.600Z,1.00
2022-12-11T12:15:25.893Z,1.00
2022-12-11T12:17:57.101Z,1.10
2022-12-11T12:20:43.799Z,0.80
2022-12-11T12:28:56.100Z,0.80
2022-12-11T12:31:53.578Z,0.80
2022-12-11T12:34:35.328Z,0.70
2022-12-11T12:37:11.230Z,1.00
2022-12-11T12:39:47.149Z,0.70
2022-12-11T12:42:26.678Z,0.60
2022-12-11T12:45:01.138Z,0.80
2022-12-11T12:50:16.097Z,0.90
2022-12-11T12:52:46.148Z,0.80
2022-12-11T12:55:24.083Z,0.80
2022-12-11T12:57:55.131Z,0.70
2022-12-11T13:00:33.300Z,0.70
2022-12-11T13:03:04.348Z,0.80
2022-12-11T13:05:36.824Z,0.90
2022-12-11T13:08:06.681Z,1.10
2022-12-11T13:15:40.579Z,1.00
2022-12-11T13:18:34.629Z,0.90
2022-12-11T13:21:03.331Z,0.90
2022-12-11T13:23:35.901Z,0.90
2022-12-11T13:26:05.491Z,0.80
2022-12-11T13:28:52.080Z,0.80
2022-12-11T13:31:40.036Z,0.90
2022-12-11T13:39:22.167Z,1.20
2022-12-11T13:41:54.618Z,0.90
2022-12-11T13:44:27.078Z,1.00
2022-12-11T13:46:59.940Z,1.10
2022-12-11T13:49:33.698Z,1.00
2022-12-11T13:52:03.340Z,0.90
2022-12-11T13:54:41.608Z,0.90
2022-12-11T14:00:01.368Z,0.90
2022-12-11T14:02:35.438Z,0.90
2022-12-11T14:05:10.197Z,0.80
2022-12-11T14:07:47.991Z,0.90
2022-12-11T14:10:22.632Z,0.90
2022-12-11T14:12:55.589Z,0.90
2022-12-11T14:15:27.428Z,0.90
2022-12-11T14:23:20.029Z,0.90
2022-12-11T14:25:58.774Z,0.90
2022-12-11T14:28:32.019Z,1.00
2022-12-11T14:31:08.231Z,1.00
2022-12-11T14:33:43.052Z,0.80
2022-12-11T14:36:12.541Z,0.60
2022-12-11T14:38:50.808Z,0.60
2022-12-11T14:44:03.928Z,0.60
2022-12-11T14:46:41.090Z,0.70
2022-12-11T14:49:28.876Z,0.80
2022-12-11T14:52:03.649Z,0.80
2022-12-11T14:54:39.150Z,0.90
2022-12-11T14:57:14.621Z,0.80
2022-12-11T14:59:49.670Z,0.80
2022-12-11T15:08:00.761Z,0.80
2022-12-11T15:10:35.596Z,0.80
2022-12-11T15:13:06.078Z,0.90
2022-12-11T15:15:45.920Z,0.80
2022-12-11T15:18:25.858Z,0.80
2022-12-11T15:20:58.351Z,0.80
2022-12-11T15:23:33.049Z,0.80
2022-12-11T15:33:58.730Z,0.80
2022-12-11T15:36:33.758Z,0.80
2022-12-11T15:39:02.137Z,0.90
2022-12-11T15:41:33.448Z,0.90
2022-12-11T15:44:04.671Z,1.00
2022-12-11T15:46:39.096Z,1.00
2022-12-11T15:49:14.718Z,1.00
2022-12-11T15:51:43.659Z,0.90
2022-12-11T15:56:51.762Z,1.00
2022-12-11T15:59:22.935Z,0.90
2022-12-11T16:01:58.107Z,0.90
2022-12-11T16:04:27.730Z,1.00
2022-12-11T16:06:56.304Z,0.90
2022-12-11T16:09:25.999Z,0.90
2022-12-11T16:11:56.348Z,0.90
2022-12-11T16:14:26.292Z,0.90
2022-12-11T16:22:05.181Z,0.90
2022-12-11T16:24:34.647Z,0.90
2022-12-11T16:27:06.461Z,1.00
2022-12-11T16:29:37.612Z,0.90
2022-12-11T16:32:13.620Z,0.90
2022-12-11T16:34:45.991Z,0.90
2022-12-11T16:37:20.031Z,1.00
2022-12-11T16:45:42.778Z,1.00
2022-12-11T16:48:11.478Z,0.90
2022-12-11T16:50:43.343Z,0.90
2022-12-11T16:53:14.790Z,0.80
2022-12-11T16:55:48.451Z,0.80
2022-12-11T16:58:20.088Z,0.80
2022-12-11T17:00:54.342Z,0.80
2022-12-11T17:06:52.131Z,0.90
2022-12-11T17:09:21.073Z,0.90
2022-12-11T17:11:48.799Z,1.00
2022-12-11T17:14:17.121Z,0.90
2022-12-11T17:16:45.383Z,1.00
2022-12-11T17:19:14.318Z,1.00
2022-12-11T17:21:43.803Z,1.20
2022-12-11T17:24:16.528Z,1.30
2022-12-11T17:31:52.930Z,0.70
2022-12-11T17:34:22.090Z,0.70
2022-12-11T17:36:51.181Z,0.90
2022-12-11T17:39:25.630Z,0.80
2022-12-11T17:41:58.862Z,0.70
2022-12-11T17:44:30.821Z,0.80
2022-12-11T17:47:07.565Z,0.80
2022-12-11T17:49:41.060Z,0.80
2022-12-11T17:57:15.389Z,0.70
2022-12-11T17:59:43.171Z,0.50
2022-12-11T18:02:13.062Z,0.40
2022-12-11T18:04:43.901Z,0.40
2022-12-11T18:07:21.929Z,0.20
2022-12-11T18:09:54.875Z,0.40
2022-12-11T18:12:27.581Z,0.40
2022-12-11T18:18:25.834Z,0.40
2022-12-11T18:20:56.169Z,0.40
2022-12-11T18:23:27.398Z,0.40
2022-12-11T18:25:58.891Z,0.50
2022-12-11T18:28:27.118Z,0.70
2022-12-11T18:30:57.392Z,0.50
2022-12-11T18:33:28.577Z,0.50
2022-12-11T18:36:00.960Z,0.50
2022-12-11T18:43:32.219Z,0.70
2022-12-11T18:46:00.468Z,1.10
2022-12-11T18:48:28.480Z,1.50
2022-12-11T18:50:58.569Z,1.50
2022-12-11T18:53:27.030Z,1.60
2022-12-11T18:56:00.168Z,1.70
2022-12-11T18:58:29.970Z,1.60
2022-12-11T19:01:05.372Z,1.20
2022-12-11T19:06:19.420Z,1.30
2022-12-11T19:08:49.520Z,1.10
2022-12-11T19:11:21.160Z,1.10
2022-12-11T19:13:55.191Z,0.80
2022-12-11T19:16:30.856Z,0.90
2022-12-11T19:19:02.452Z,0.90
2022-12-11T19:21:31.663Z,1.00
2022-12-11T19:29:03.459Z,1.10
2022-12-11T19:31:37.822Z,1.20
2022-12-11T19:34:09.110Z,1.40
2022-12-11T19:36:43.761Z,1.40
2022-12-11T19:39:15.529Z,1.30
2022-12-11T19:41:48.624Z,1.20
2022-12-11T19:44:21.210Z,1.20
2022-12-11T19:54:53.528Z,1.40
2022-12-11T19:57:23.571Z,1.50
2022-12-11T20:00:01.728Z,1.50
2022-12-11T20:02:33.135Z,1.40
2022-12-11T20:05:03.810Z,1.20
2022-12-11T20:07:32.588Z,1.00
2022-12-11T20:10:11.273Z,0.90
2022-12-11T20:20:16.266Z,1.20
2022-12-11T20:22:48.778Z,1.00
2022-12-11T20:25:18.433Z,0.90
2022-12-11T20:27:51.209Z,0.70
2022-12-11T20:30:24.210Z,0.90
2022-12-11T20:32:52.678Z,0.60
2022-12-11T20:35:27.729Z,0.50
2022-12-11T20:37:56.230Z,0.90
2022-12-11T20:45:32.213Z,0.60
2022-12-11T20:48:00.292Z,0.70
2022-12-11T20:50:31.312Z,0.90
2022-12-11T20:53:34.979Z,1.30
2022-12-11T20:56:11.441Z,1.20
2022-12-11T20:58:41.669Z,1.20
2022-12-11T21:01:18.417Z,0.80
2022-12-11T21:03:46.500Z,0.60
2022-12-11T21:11:19.959Z,0.60
2022-12-11T21:13:47.708Z,0.70
2022-12-11T21:16:16.642Z,0.70
2022-12-11T21:18:45.944Z,0.70
2022-12-11T21:21:14.218Z,0.80
2022-12-11T21:23:42.250Z,0.80
2022-12-11T21:26:10.400Z,0.70
2022-12-11T21:28:39.020Z,0.80
2022-12-11T21:38:54.460Z,0.70
2022-12-11T21:41:25.093Z,0.70
2022-12-11T21:46:43.045Z,0.80
2022-12-11T21:49:11.878Z,0.70
2022-12-11T21:51:46.824Z,0.70
2022-12-11T21:54:17.721Z,0.80
2022-12-11T22:01:51.226Z,0.70
2022-12-11T22:04:20.501Z,1.20
2022-12-11T22:06:48.411Z,0.90
2022-12-11T22:09:18.430Z,0.90
2022-12-11T22:11:47.987Z,1.20
2022-12-11T22:14:17.681Z,1.00
2022-12-11T22:16:48.863Z,1.50
2022-12-11T22:22:16.360Z,1.30
2022-12-11T22:24:46.830Z,1.50
2022-12-11T22:27:16.830Z,1.40
2022-12-11T22:29:48.081Z,1.40
2022-12-11T22:32:16.445Z,1.40
2022-12-11T22:34:45.019Z,1.30
2022-12-11T22:37:12.399Z,1.40
2022-12-11T22:39:41.284Z,1.50
2022-12-11T22:47:14.811Z,0.90
2022-12-11T22:49:42.840Z,0.90
2022-12-11T22:52:11.352Z,0.70
2022-12-11T22:54:39.239Z,0.70
2022-12-11T22:57:08.018Z,0.80
2022-12-11T22:59:37.667Z,0.80
2022-12-11T23:02:04.929Z,1.00
2022-12-11T23:04:33.668Z,1.00
2022-12-11T23:12:10.690Z,1.00
2022-12-11T23:14:38.388Z,0.90
2022-12-11T23:17:05.713Z,1.00
2022-12-11T23:19:34.301Z,0.80
2022-12-11T23:22:01.521Z,0.80
2022-12-11T23:24:28.897Z,0.90
2022-12-11T23:26:56.265Z,0.80
2022-12-11T23:29:25.250Z,0.90
2022-12-11T23:39:54.800Z,0.70
2022-12-11T23:42:22.281Z,0.80
2022-12-11T23:44:51.349Z,0.80
2022-12-11T23:47:19.010Z,0.90
2022-12-11T23:49:46.377Z,1.00
2022-12-11T23:52:13.659Z,0.90
2022-12-11T23:54:41.010Z,1.00
2022-12-11T23:57:09.921Z,1.10
